Etusivu
METAR-TAF:

METAR-TAF

Lentoasemat :

Karachi, Pakistan

Leveyspiiri: 24-54N, Pituuspiiri: 067-08E, korkeus merenpinnasta: 21 m

Tämänhetkinen sää

Tämä raportti tehtiin 1 tunti ja 10 minuuttia sitten, kello 10.00 UTC
Tuuli 5 kn etelästä
Lämpötila 35°C
Kosteus 56%
Ilmanpaine 996 hPa
Näkyvyys: 7000 m

METAR: OPKC 301000Z 18005KT 7000 NSC 35/25 Q0996 NOSIG

Aika: 16:10 (11:10 UTC)

Sääennuste

Tämä raportti tehtiin 7 tuntia ja 10 minuuttia sitten, kello 04.00 UTC
Ennuste voimassa 30. päivästä klo 06 UTC - 31. päivään klo 12 UTC
Tuuli 5 kn lännestä/lounaasta puuskistuen 15 kn:hen
Näkyvyys: 6000 m
From 30. päivästä klo 1500 UTC
Tuuli 7 kn lännestä
Näkyvyys: 6000 m
Muutamia pilviä 3000 ft:n korkeudessa
Ajoittain
31. päivästä klo 01 UTC - 31. päivään klo 05 UTC
Tuuli 6 kn lännestä
Näkyvyys: 4000 m
Hajanaisia pilviä 2000 ft:n korkeudessa
savua

TAF: OPKC 300400Z 3006/3112 25005G15KT 6000 NSC FM301500 27007KT 6000 FEW030 TEMPO 3101/3105 26006KT 4000 FU SCT020

Säähavainnot ja -ennusteet yli 4000 lentoasemalta (METAR- ja TAF-raportit).

Käytössä olevat sääasemat on merkitty karttaan keltaisilla ja punaisilla pisteillä.

Aseta hiiri pisteen päälle nähdäksesi sääaseman nimen.

Klikkaa sitten nähdäksesi säähavainnot ja -ennusteet.

Kartan vaihtaminen: klikkaa mustalla rastilla varustettuja vihreitä pisteitä, niin voit zoomata sisään; viivalla varustettua vihreää pistettä, niin voit zoomata ulos tai vihreitä nuolia, niin pääset viereisille kartoille.


METAR-TAF: